Fort Cobb, OK (73038)

8:56 AM CST on February 10, 2016 (GMT -0600)
Peck's country | | Change Station
CLOSE
Current Station
Personal Weather Station
Location: Anadarko, OK
Elevation: 1255 ft
Nearby Weather Stations
Active Advisory: Fire Weather Warning

Elev 1255 ft 35.10 °N, 98.32 °W | Updated 6 minutes ago

Clear
Clear
26.5 °F
Feels Like 26 °F
N
0.0
Wind Variable Wind from North
Gusts 0.0 mph

Today
High -- | Low -- °F
--% Chance of Precip.
Yesterday
High -- | Low -- °F
Precip. -- in
Pressure 30.25 in
Visibility 10.0 miles
Clouds Clear
Windchill 26 °F
Dew Point 23 °F
Humidity 86%
Rainfall 0.00 in
Snow Depth Not available.
7:25 AM 6:11 PM
Waxing Crescent, 5% visible
METAR KCHK 101435Z AUTO 19004KT 10SM CLR 01/M02 A3025 RMK AO2
Pressure 30.25 in
Visibility 10.0 miles
Clouds Clear
Windchill 26 °F
Dew Point 23 °F
Humidity 86%
Rainfall 0.00 in
Snow Depth Not available.
7:25 AM 6:11 PM
Waxing Crescent, 5% visible
METAR KCHK 101435Z AUTO 19004KT 10SM CLR 01/M02 A3025 RMK AO2

10-Day Weather Forecast

Almanac

Astronomy

Feb. 10, 2016 Rise Set
Actual Time
Civil Twilight
Nautical Twilight
Astronomical Twilight
Moon
Length of Visible Light
Length of Day
Tomorrow will be .
, % of the Moon is Illuminated

Today's Extremes

State Highs State Lows

Community

WunderPhotos

Upload Photos

1,891,854 photos uploaded!

WunderBlog® & News

Nearby

Air Quality

  Air Quality AQ Index Pollutant
Not available.

Snow Depth

Station Depth Elevation

Earthquake Activity

City Distance Mag. Time & Date
Minimum magnitude displayed is 2.5.

Coastal Water Temperatures

Place Temperature

Stations

Nearby Weather Stations

Station Location Temp. Windchill Dew Point Humidity Wind Precip. Elev Updated Type
                   

Watches & Warnings

Fire Weather Warning
Issued: 4:21 AM CST Feb. 10, 2016 – National Weather Service

... Red flag warning in effect from 11 am this morning to 7 PM CST
this evening for windy conditions... warm temperatures and low
relative humidity for much of central and western Oklahoma... and
western North Texas...

The National Weather Service in Norman has issued a red flag
warning... which is in effect from 11 am this morning to 7 PM CST
this evening. The Fire Weather Watch is no longer in effect.

* Timing... 11 am to 7 PM.

* Wind... west to southwest 15 to 25 mph with gusts 20 to 30 mph.

* Humidity... 15 to 25 percent.

* Temperature... 65 to 80 degrees.

* Impacts... any fires that develop will likely spread rapidly.
Outdoor burning is not recommended.

Precautionary/preparedness actions...

A red flag warning means that critical fire weather conditions
are either occurring now... or will shortly. A combination of
strong winds... low relative humidity... and warm temperatures can
contribute to extreme fire behavior.



Cms